createdAt,value
2023-03-22T00:01:36.689Z,8.40
2023-03-22T00:04:04.803Z,9.03
2023-03-22T00:06:34.087Z,8.47
2023-03-22T00:09:02.012Z,8.80
2023-03-22T00:11:29.904Z,8.20
2023-03-22T00:13:58.998Z,9.83
2023-03-22T00:16:27.037Z,8.97
2023-03-22T00:18:55.050Z,7.80
2023-03-22T00:21:22.992Z,7.50
2023-03-22T00:23:52.361Z,7.10
2023-03-22T00:26:20.315Z,6.70
2023-03-22T00:28:48.278Z,6.73
2023-03-22T00:31:16.213Z,7.30
2023-03-22T00:33:44.221Z,7.43
2023-03-22T00:36:13.679Z,7.47
2023-03-22T00:38:43.415Z,6.10
2023-03-22T00:41:18.508Z,6.70
2023-03-22T00:43:48.066Z,7.23
2023-03-22T00:46:17.807Z,8.07
2023-03-22T00:48:45.912Z,7.03
2023-03-22T00:51:15.068Z,6.77
2023-03-22T00:53:43.994Z,6.80
2023-03-22T00:56:15.707Z,7.30
2023-03-22T00:58:45.471Z,7.27
2023-03-22T01:01:14.504Z,6.80
2023-03-22T01:03:43.440Z,6.17
2023-03-22T01:06:12.129Z,5.63
2023-03-22T01:08:40.125Z,6.13
2023-03-22T01:11:08.811Z,5.73
2023-03-22T01:13:38.499Z,5.67
2023-03-22T01:16:09.921Z,6.23
2023-03-22T01:18:38.276Z,6.50
2023-03-22T01:21:07.397Z,5.80
2023-03-22T01:23:35.404Z,6.03
2023-03-22T01:26:03.686Z,5.30
2023-03-22T01:28:32.002Z,6.23
2023-03-22T01:31:04.202Z,6.00
2023-03-22T01:33:33.587Z,5.77
2023-03-22T01:36:01.622Z,6.00
2023-03-22T01:38:29.694Z,6.47
2023-03-22T01:40:58.180Z,5.90
2023-03-22T01:43:26.133Z,6.37
2023-03-22T01:45:55.071Z,5.77
2023-03-22T01:48:27.948Z,5.40
2023-03-22T01:51:05.550Z,6.23
2023-03-22T01:53:38.009Z,6.00
2023-03-22T01:56:06.896Z,5.90
2023-03-22T01:58:37.989Z,6.07
2023-03-22T02:01:07.724Z,5.43
2023-03-22T02:03:44.496Z,7.80
2023-03-22T02:06:13.873Z,5.93
2023-03-22T02:08:42.630Z,6.27
2023-03-22T02:11:15.531Z,6.73
2023-03-22T02:14:03.550Z,5.83
2023-03-22T02:16:40.122Z,5.80
2023-03-22T02:19:30.597Z,6.40
2023-03-22T02:22:22.945Z,6.80
2023-03-22T02:25:18.616Z,6.40
2023-03-22T02:28:02.163Z,6.13
2023-03-22T02:30:55.738Z,5.60
2023-03-22T02:33:41.778Z,6.33
2023-03-22T02:36:36.678Z,5.80
2023-03-22T02:39:19.441Z,5.50
2023-03-22T02:42:09.010Z,5.77
2023-03-22T02:44:42.653Z,6.60
2023-03-22T02:47:21.950Z,6.27
2023-03-22T02:49:56.994Z,6.40
2023-03-22T02:52:28.962Z,6.63
2023-03-22T02:55:06.874Z,6.60
2023-03-22T02:57:38.837Z,7.23
2023-03-22T03:00:10.552Z,7.30
2023-03-22T03:02:42.349Z,8.63
2023-03-22T03:05:12.975Z,7.70
2023-03-22T03:07:44.261Z,7.97
2023-03-22T03:10:16.332Z,6.93
2023-03-22T03:12:44.879Z,6.43
2023-03-22T03:15:16.607Z,6.20
2023-03-22T03:17:58.921Z,5.90
2023-03-22T03:20:35.234Z,5.80
2023-03-22T03:23:17.505Z,4.70
2023-03-22T03:25:53.184Z,4.80
2023-03-22T03:28:30.179Z,4.53
2023-03-22T03:31:02.180Z,5.00
2023-03-22T03:33:33.658Z,4.90
2023-03-22T03:36:06.332Z,4.93
2023-03-22T03:38:38.810Z,4.87
2023-03-22T03:41:12.313Z,5.87
2023-03-22T03:43:41.088Z,5.80
2023-03-22T03:46:09.716Z,5.40
2023-03-22T03:48:40.387Z,5.70
2023-03-22T03:51:08.896Z,6.23
2023-03-22T03:53:36.870Z,6.00
2023-03-22T03:56:05.234Z,5.47
2023-03-22T03:58:34.519Z,5.93
2023-03-22T04:01:04.125Z,5.37
2023-03-22T04:03:33.037Z,5.47
2023-03-22T04:06:01.151Z,6.20
2023-03-22T04:08:29.162Z,5.33
2023-03-22T04:10:57.140Z,5.27
2023-03-22T04:13:25.801Z,5.30
2023-03-22T04:15:57.503Z,6.17
2023-03-22T04:18:25.500Z,5.93
2023-03-22T04:20:53.642Z,5.87
2023-03-22T04:23:23.233Z,6.00
2023-03-22T04:25:51.449Z,7.50
2023-03-22T04:28:20.321Z,6.20
2023-03-22T04:30:51.942Z,6.43
2023-03-22T04:33:22.869Z,5.83
2023-03-22T04:35:56.723Z,5.80
2023-03-22T04:38:25.232Z,6.60
2023-03-22T04:40:53.201Z,5.47
2023-03-22T04:43:21.134Z,6.90
2023-03-22T04:45:49.429Z,5.90
2023-03-22T04:48:17.704Z,5.97
2023-03-22T04:50:47.096Z,6.00
2023-03-22T04:53:15.168Z,6.07
2023-03-22T04:55:45.494Z,5.50
2023-03-22T04:58:13.416Z,5.87
2023-03-22T05:00:42.372Z,5.27
2023-03-22T05:03:10.571Z,4.93
2023-03-22T05:05:39.697Z,4.90
2023-03-22T05:08:09.088Z,5.17
2023-03-22T05:10:41.576Z,5.53
2023-03-22T05:13:09.837Z,5.40
2023-03-22T05:15:41.787Z,5.60
2023-03-22T05:18:10.339Z,7.00
2023-03-22T05:20:38.871Z,6.23
2023-03-22T05:23:09.862Z,5.93
2023-03-22T05:25:38.341Z,6.40
2023-03-22T05:28:07.343Z,6.20
2023-03-22T05:30:35.336Z,7.10
2023-03-22T05:33:05.118Z,5.87
2023-03-22T05:35:34.635Z,5.90
2023-03-22T05:38:02.563Z,6.00
2023-03-22T05:40:32.479Z,6.00
2023-03-22T05:43:00.458Z,5.77
2023-03-22T05:45:28.544Z,6.27
2023-03-22T05:47:56.608Z,6.83
2023-03-22T05:50:25.148Z,6.90
2023-03-22T05:52:53.456Z,5.77
2023-03-22T05:55:22.350Z,6.47
2023-03-22T05:57:53.952Z,6.20
2023-03-22T06:00:23.777Z,6.80
2023-03-22T06:02:56.323Z,6.80
2023-03-22T06:05:24.661Z,6.50
2023-03-22T06:07:53.101Z,6.80
2023-03-22T06:10:21.301Z,8.13
2023-03-22T06:12:49.305Z,8.20
2023-03-22T06:15:18.929Z,6.30
2023-03-22T06:17:47.773Z,6.40
2023-03-22T06:20:16.374Z,6.97
2023-03-22T06:22:44.574Z,7.33
2023-03-22T06:25:12.909Z,6.07
2023-03-22T06:27:41.009Z,6.77
2023-03-22T06:30:10.397Z,6.70
2023-03-22T06:32:39.788Z,5.90
2023-03-22T06:35:08.961Z,5.77
2023-03-22T06:37:36.956Z,6.20
2023-03-22T06:40:05.854Z,6.17
2023-03-22T06:42:34.295Z,6.40
2023-03-22T06:45:02.381Z,6.00
2023-03-22T06:47:30.421Z,5.03
2023-03-22T06:49:59.915Z,5.10
2023-03-22T06:52:28.017Z,5.57
2023-03-22T06:55:00.181Z,5.73
2023-03-22T06:57:28.388Z,4.97
2023-03-22T06:59:56.380Z,4.70
2023-03-22T07:02:24.534Z,4.27
2023-03-22T07:04:52.550Z,4.97
2023-03-22T07:07:22.272Z,4.23
2023-03-22T07:09:51.190Z,5.00
2023-03-22T07:12:22.023Z,4.80
2023-03-22T07:14:50.588Z,5.30
2023-03-22T07:17:18.879Z,4.90
2023-03-22T07:19:46.992Z,5.38
2023-03-22T07:22:15.016Z,4.57
2023-03-22T07:24:55.998Z,5.50
2023-03-22T07:27:25.332Z,4.70
2023-03-22T07:29:54.264Z,4.22
2023-03-22T07:32:22.390Z,5.10
2023-03-22T07:34:50.684Z,4.70
2023-03-22T07:37:18.967Z,4.80
2023-03-22T07:39:48.462Z,4.72
2023-03-22T07:42:16.440Z,4.70
2023-03-22T07:44:44.506Z,4.70
2023-03-22T07:47:12.754Z,4.53
2023-03-22T07:49:40.862Z,5.50
2023-03-22T07:52:09.244Z,4.40
2023-03-22T07:54:37.231Z,5.38
2023-03-22T07:57:06.989Z,4.60
2023-03-22T07:59:37.372Z,4.47
2023-03-22T08:02:06.829Z,4.43
2023-03-22T08:04:35.347Z,3.50
2023-03-22T08:07:03.492Z,4.15
2023-03-22T08:09:31.623Z,4.47
2023-03-22T08:11:59.766Z,3.70
2023-03-22T08:14:36.303Z,3.88
2023-03-22T08:17:05.754Z,3.45
2023-03-22T08:19:34.189Z,3.58
2023-03-22T08:22:02.320Z,4.10
2023-03-22T08:24:30.431Z,4.15
2023-03-22T08:26:59.093Z,4.10
2023-03-22T08:29:28.761Z,4.20
2023-03-22T08:32:02.078Z,3.75
2023-03-22T08:34:31.529Z,3.85
2023-03-22T08:36:59.538Z,3.58
2023-03-22T08:39:28.111Z,3.00
2023-03-22T08:41:56.512Z,2.20
2023-03-22T08:44:24.598Z,2.90
2023-03-22T08:46:54.507Z,2.97
2023-03-22T08:49:22.709Z,2.70
2023-03-22T08:51:51.038Z,2.85
2023-03-22T08:54:19.238Z,2.05
2023-03-22T08:56:48.317Z,2.67
2023-03-22T08:59:16.296Z,2.80
2023-03-22T09:01:44.449Z,2.65
2023-03-22T09:04:13.849Z,2.50
2023-03-22T09:06:45.236Z,3.15
2023-03-22T09:09:13.502Z,2.50
2023-03-22T09:11:42.781Z,2.38
2023-03-22T09:14:10.920Z,2.25
2023-03-22T09:16:39.069Z,2.08
2023-03-22T09:19:07.590Z,2.20
2023-03-22T09:21:37.049Z,1.77
2023-03-22T09:24:05.149Z,1.52
2023-03-22T09:26:33.214Z,2.08
2023-03-22T09:29:01.312Z,2.13
2023-03-22T09:31:29.612Z,2.17
2023-03-22T09:33:57.768Z,2.63
2023-03-22T09:36:26.050Z,2.40
2023-03-22T09:38:56.443Z,2.17
2023-03-22T09:41:31.202Z,1.80
2023-03-22T09:44:05.109Z,1.77
2023-03-22T09:46:36.878Z,2.00
2023-03-22T09:49:11.625Z,1.80
2023-03-22T09:51:42.091Z,1.80
2023-03-22T09:54:21.616Z,2.08
2023-03-22T09:56:54.793Z,1.80
2023-03-22T09:59:27.144Z,2.50
2023-03-22T10:01:59.504Z,1.52
2023-03-22T10:04:45.194Z,1.77
2023-03-22T10:07:21.582Z,2.20
2023-03-22T10:10:00.155Z,2.28
2023-03-22T10:12:31.122Z,2.03
2023-03-22T10:15:06.876Z,2.65
2023-03-22T10:17:37.848Z,1.85
2023-03-22T10:20:10.245Z,2.25
2023-03-22T10:22:42.770Z,1.50
2023-03-22T10:25:18.419Z,2.35
2023-03-22T10:27:49.875Z,1.98
2023-03-22T10:30:22.733Z,1.77
2023-03-22T10:32:58.465Z,1.90
2023-03-22T10:35:26.923Z,2.20
2023-03-22T10:37:56.878Z,2.70
2023-03-22T10:40:29.822Z,1.67
2023-03-22T10:43:00.924Z,1.75
2023-03-22T10:45:29.267Z,1.85
2023-03-22T10:48:02.016Z,2.50
2023-03-22T10:50:33.814Z,2.15
2023-03-22T10:53:06.676Z,1.95
2023-03-22T10:55:41.220Z,1.90
2023-03-22T10:58:15.640Z,1.80
2023-03-22T11:00:49.151Z,2.53
2023-03-22T11:03:30.758Z,1.58
2023-03-22T11:06:03.920Z,1.58
2023-03-22T11:08:40.450Z,1.65
2023-03-22T11:11:18.446Z,1.40
2023-03-22T11:13:52.880Z,1.35
2023-03-22T11:16:21.444Z,1.30
2023-03-22T11:18:49.623Z,1.30
2023-03-22T11:21:19.258Z,0.85
2023-03-22T11:23:55.370Z,1.52
2023-03-22T11:26:30.938Z,1.33
2023-03-22T11:29:06.791Z,1.50
2023-03-22T11:31:57.112Z,1.30
2023-03-22T11:34:27.627Z,1.60
2023-03-22T11:36:57.601Z,1.73
2023-03-22T11:39:28.396Z,1.45
2023-03-22T11:42:01.568Z,1.50
2023-03-22T11:44:34.039Z,1.42
2023-03-22T11:47:04.044Z,1.30
2023-03-22T11:49:40.984Z,1.20
2023-03-22T11:52:12.743Z,1.73
2023-03-22T11:54:42.580Z,1.30
2023-03-22T11:57:16.934Z,1.10
2023-03-22T11:59:50.451Z,1.30
2023-03-22T12:02:24.521Z,1.57
2023-03-22T12:04:57.538Z,1.23
2023-03-22T12:07:27.920Z,1.40
2023-03-22T12:10:03.333Z,1.07
2023-03-22T12:12:37.809Z,1.07
2023-03-22T12:15:14.198Z,1.30
2023-03-22T12:17:46.555Z,1.43
2023-03-22T12:20:22.774Z,1.20
2023-03-22T12:22:54.702Z,1.50
2023-03-22T12:25:26.053Z,1.40
2023-03-22T12:27:58.144Z,1.20
2023-03-22T12:30:29.324Z,1.30
2023-03-22T12:33:03.545Z,1.33
2023-03-22T12:35:34.499Z,1.10
2023-03-22T12:38:13.031Z,0.93
2023-03-22T12:40:42.526Z,0.97
2023-03-22T12:43:17.836Z,1.07
2023-03-22T12:45:50.270Z,1.40
2023-03-22T12:48:22.326Z,1.93
2023-03-22T12:50:54.513Z,2.93
2023-03-22T12:53:27.041Z,1.33
2023-03-22T12:55:56.604Z,1.30
2023-03-22T12:58:27.628Z,1.70
2023-03-22T13:00:58.988Z,1.77
2023-03-22T13:03:29.881Z,1.00
2023-03-22T13:06:04.630Z,1.00
2023-03-22T13:09:10.675Z,1.23
2023-03-22T13:11:38.875Z,1.40
2023-03-22T13:14:10.968Z,1.30
2023-03-22T13:17:00.346Z,1.00
2023-03-22T13:19:33.063Z,1.10
2023-03-22T13:22:24.228Z,1.17
2023-03-22T13:25:08.587Z,1.40
2023-03-22T13:27:39.282Z,1.20
2023-03-22T13:30:17.912Z,1.40
2023-03-22T13:32:54.517Z,1.20
2023-03-22T13:35:28.012Z,1.43
2023-03-22T13:38:02.649Z,1.13
2023-03-22T13:40:35.938Z,1.67
2023-03-22T13:43:13.084Z,1.00
2023-03-22T13:46:02.751Z,1.10
2023-03-22T13:48:40.867Z,9.23
2023-03-22T13:51:15.431Z,1.60
2023-03-22T13:53:51.264Z,1.10
2023-03-22T13:56:33.721Z,1.27
2023-03-22T13:59:04.458Z,1.40
2023-03-22T14:01:36.279Z,0.90
2023-03-22T14:04:10.578Z,1.07
2023-03-22T14:06:47.977Z,1.37
2023-03-22T14:09:24.987Z,1.10
2023-03-22T14:11:58.050Z,1.00
2023-03-22T14:14:31.084Z,1.20
2023-03-22T14:17:05.922Z,0.90
2023-03-22T14:19:35.981Z,1.30
